Malin Head, Ireland

9:37 AM IST on May 30, 2015 (GMT +0100)
Carndonagh | | Change Station
CLOSE
Current Station
Personal Weather Station
Location: Inishowen, DONEGAL
Elevation: 33 ft
Nearby Weather Stations

Elev 33 ft 55.27 °N, 7.24 °W | Updated 43 minutes ago

Partly Cloudy
Partly Cloudy
53.6 °F
Feels Like 53.6 °F
N
4.9
Wind Variable Wind from WNW
Gusts 12.3 mph

Today
High -- | Low -- °F
--% Chance of Precip.
Yesterday
High -- | Low -- °F
Precip. -- in
4:58 AM 9:56 PM
Waxing Gibbous, 89% visible
Pressure 29.86 in
Visibility 6.2 miles
Clouds Few 3500 ft
Dew Point 34 °F
Humidity 47%
Rainfall 0.04 in
Snow Depth Not available.
UV 0.0 out of 12
Pollen Not available.
Air Quality Not available.
Flu Activity Not available.
METAR EGAE 300820Z 25008KT 9999 FEW035 11/07 Q1011

More Conditions Fewer Conditions

Pressure 29.86 in
Visibility 6.2 miles
Clouds Few 3500 ft
Dew Point 34 °F
Humidity 47%
Rainfall 0.04 in
Snow Depth Not available.
UV 0.0 out of 12
Pollen Not available.
Air Quality Not available.
Flu Activity Not available.
METAR EGAE 300820Z 25008KT 9999 FEW035 11/07 Q1011

More Conditions Fewer Conditions

10-Day Weather Forecast

Almanac

Astronomy

May. 30, 2015 Rise Set
Actual Time
Civil Twilight
Nautical Twilight
Astronomical Twilight
Moon
Length of Visible Light
Length of Day
Tomorrow will be .
, % of the Moon is Illuminated

Today's Extremes

Country Highs Country Lows

Community

WunderPhotos

Upload Photos

1,825,472 photos uploaded!

WunderBlogs® & News

Nearby

Air Quality

  Air Quality AQ Index Pollutant
Not available.

Snow Depth

Station Depth Elevation

Earthquake Activity

City Distance Mag. Time & Date
Minimum magnitude displayed is 2.5.

Coastal Water Temperatures

Place Temperature

Stations

Nearby Weather Stations

Station Location Temp. Windchill Dew Point Humidity Wind Precip. Elev Updated Type